Time;durP1;ratioP1;P1;durP2;ratioP2;P2;SDS_P1;SDS_P2;PMS_P1;PMS_P2;Temp;Humidity;BMP_temperature;BMP_pressure;BME280_temperature;BME280_humidity;BME280_pressure;Samples;Min_cycle;Max_cycle;Signal;HPM_P1;HPM_P2
2022/01/03 00:01:14;;;;;;;6.13;4.18;;;;;;;20.89;55.49;101062.94;4227017;28;20479;-55
2022/01/03 00:03:17;;;;;;;8.07;4.53;;;;;;;20.85;55.50;101059.03;4227806;28;20036;-57
2022/01/03 00:05:19;;;;;;;7.45;4.45;;;;;;;20.88;55.59;101075.19;4227772;28;20043;-52
2022/01/03 00:07:20;;;;;;;9.75;5.78;;;;;;;20.89;55.50;101077.69;4222556;28;20475;-55
2022/01/03 00:09:22;;;;;;;9.80;5.88;;;;;;;20.89;55.49;101077.69;4226870;28;20104;-54
2022/01/03 00:11:23;;;;;;;9.88;7.45;;;;;;;20.88;55.65;101067.66;4232782;28;20044;-53
2022/01/03 00:13:25;;;;;;;11.63;6.80;;;;;;;20.87;55.53;101068.78;4216511;28;20085;-56
2022/01/03 00:15:28;;;;;;;8.95;7.28;;;;;;;20.89;55.54;101093.53;4221614;28;20036;-53
2022/01/03 00:17:30;;;;;;;13.55;9.02;;;;;;;20.90;55.54;101109.13;4219921;28;20088;-57
2022/01/03 00:19:31;;;;;;;13.98;10.35;;;;;;;20.89;55.25;101122.22;4227996;28;20047;-56
2022/01/03 00:22:03;;;;;;;17.80;11.38;;;;;;;20.87;55.34;101123.59;4223222;28;20092;-54
2022/01/03 00:24:10;;;;;;;16.38;11.65;;;;;;;20.91;55.11;101146.97;4218838;28;20077;-57
2022/01/03 00:26:13;;;;;;;19.40;13.13;;;;;;;20.91;55.27;101135.84;4225114;28;20028;-52
2022/01/03 00:28:22;;;;;;;25.67;16.52;;;;;;;20.91;55.39;101146.97;4228858;28;20427;-56
2022/01/03 00:30:25;;;;;;;24.13;16.27;;;;;;;20.88;55.24;101153.06;4223714;28;20094;-55
2022/01/03 00:32:28;;;;;;;22.25;17.38;;;;;;;20.93;55.13;101169.75;4227724;28;20039;-57
2022/01/03 00:34:35;;;;;;;23.77;16.88;;;;;;;20.90;54.93;101187.03;4232986;27;20035;-57
2022/01/03 00:36:37;;;;;;;25.48;18.38;;;;;;;20.93;54.82;101186.44;4216841;28;20487;-56
2022/01/03 00:38:39;;;;;;;27.60;20.70;;;;;;;20.93;54.86;101180.88;4229771;28;20084;-56
2022/01/03 00:40:41;;;;;;;29.88;22.30;;;;;;;20.93;55.00;101189.22;4228174;28;20040;-57
2022/01/03 00:42:45;;;;;;;27.00;21.05;;;;;;;20.91;54.67;101197.03;4226565;28;20027;-54
2022/01/03 00:44:48;;;;;;;31.83;22.75;;;;;;;20.92;54.62;101193.13;4229979;28;20104;-56
2022/01/03 00:46:51;;;;;;;32.63;23.83;;;;;;;20.93;54.42;101197.56;4223320;28;20093;-57
2022/01/03 00:48:54;;;;;;;31.02;23.30;;;;;;;20.91;54.42;101186.72;4228272;28;20109;-58
2022/01/03 00:50:55;;;;;;;34.35;23.10;;;;;;;20.94;54.40;101182.59;4228219;28;20036;-57
2022/01/03 00:52:57;;;;;;;32.58;24.48;;;;;;;20.93;54.45;101194.78;4219187;28;20083;-56
2022/01/03 00:54:58;;;;;;;37.42;27.63;;;;;;;20.92;54.18;101196.75;4230353;28;20044;-55
2022/01/03 00:57:07;;;;;;;40.35;30.60;;;;;;;20.92;53.88;101215.38;4226580;28;20101;-55
2022/01/03 00:59:15;;;;;;;43.80;30.27;;;;;;;20.92;53.77;101215.38;4205987;28;20074;-57
2022/01/03 01:01:23;;;;;;;40.72;31.33;;;;;;;20.92;54.00;101215.38;4225476;27;20392;-57
2022/01/03 01:03:32;;;;;;;41.70;31.63;;;;;;;20.91;53.84;101208.16;4226596;28;20043;-53
2022/01/03 01:05:34;;;;;;;42.60;31.45;;;;;;;20.92;53.86;101216.22;4229165;27;20034;-58
2022/01/03 01:07:39;;;;;;;50.63;34.42;;;;;;;20.92;53.47;101219.00;4232881;27;20105;-58
2022/01/03 01:09:51;;;;;;;46.58;34.95;;;;;;;20.72;53.96;101202.25;4206185;28;20105;-55
2022/01/03 01:11:58;;;;;;;45.20;34.38;;;;;;;20.92;53.63;101226.50;4213538;28;20032;-59
2022/01/03 01:14:00;;;;;;;48.97;34.75;;;;;;;20.91;53.66;101241.53;4232914;28;20048;-59
2022/01/03 01:16:06;;;;;;;49.15;34.83;;;;;;;20.91;53.76;101235.97;4218102;28;20047;-57
2022/01/03 01:18:08;;;;;;;46.47;35.88;;;;;;;20.91;53.96;101242.38;4224935;27;20044;-59
2022/01/03 01:20:10;;;;;;;49.33;35.33;;;;;;;20.91;53.95;101252.66;4231822;27;20089;-56
2022/01/03 01:22:12;;;;;;;49.75;34.67;;;;;;;20.91;53.64;101238.75;4236279;27;20440;-59
2022/01/03 01:24:16;;;;;;;45.38;35.80;;;;;;;20.91;53.44;101242.38;4233026;27;20092;-59
2022/01/03 01:28:39;;;;;;;48.47;34.38;;;;;;;20.92;53.34;101259.91;4229776;27;20064;-59
2022/01/03 01:30:42;;;;;;;44.92;34.67;;;;;;;20.92;53.09;101271.03;4225902;28;20052;-55
2022/01/03 01:33:07;;;;;;;45.70;34.10;;;;;;;20.91;52.61;101274.91;4227759;28;20044;-58
2022/01/03 01:35:09;;;;;;;45.38;34.88;;;;;;;20.91;52.88;101259.06;4231243;28;20100;-59
2022/01/03 01:37:12;;;;;;;46.75;33.80;;;;;;;20.92;52.81;101276.59;4221770;28;20085;-60
2022/01/03 01:39:17;;;;;;;43.10;33.40;;;;;;;20.92;52.64;101304.41;4229895;27;20097;-60
2022/01/03 01:41:19;;;;;;;;;;;;;;;20.90;52.60;101312.19;4231257;28;20043;-59
2022/01/03 01:43:35;;;;;;;40.42;31.13;;;;;;;20.92;52.46;101326.66;4231293;28;19916;-59
2022/01/03 01:45:37;;;;;;;40.70;30.02;;;;;;;20.95;52.00;101329.75;4229625;28;20072;-59
2022/01/03 01:47:40;;;;;;;42.15;30.95;;;;;;;20.93;51.82;101333.88;4231296;28;20082;-58
2022/01/03 01:49:46;;;;;;;42.47;31.95;;;;;;;20.93;51.83;101333.88;4223770;27;20040;-59
2022/01/03 01:51:55;;;;;;;42.90;31.52;;;;;;;20.93;51.91;101329.16;4218291;28;20024;-59
2022/01/03 01:53:57;;;;;;;37.08;28.63;;;;;;;20.92;51.91;101327.50;4227406;28;20191;-60
2022/01/03 01:55:59;;;;;;;42.00;30.83;;;;;;;20.92;51.93;101321.09;4229287;28;20051;-59
2022/01/03 01:58:16;;;;;;;37.08;27.67;;;;;;;20.91;51.78;101314.69;4229054;28;20092;-59
2022/01/03 02:00:18;;;;;;;35.92;27.27;;;;;;;20.92;51.58;101340.56;4212115;28;20117;-60
2022/01/03 02:02:30;;;;;;;41.13;27.70;;;;;;;20.91;51.72;101336.13;4230369;28;20548;-61
2022/01/03 02:04:42;;;;;;;34.78;26.63;;;;;;;20.90;51.32;101331.66;4231229;28;20043;-60
2022/01/03 02:06:47;;;;;;;36.15;25.27;;;;;;;20.89;51.17;101328.06;4229034;28;20036;-59
2022/01/03 02:09:00;;;;;;;32.42;26.05;;;;;;;20.90;51.63;101332.50;4232972;27;20051;-61
2022/01/03 02:11:39;;;;;;;36.88;26.83;;;;;;;20.92;51.40;101337.78;4216878;28;20043;-57
2022/01/03 02:13:42;;;;;;;31.13;23.27;;;;;;;20.90;50.90;101351.16;4164427;28;20037;-60
2022/01/03 02:15:46;;;;;;;30.88;23.35;;;;;;;20.88;50.67;101353.34;4194520;28;20502;-58
2022/01/03 02:17:49;;;;;;;29.92;23.27;;;;;;;20.91;51.10;101358.38;4226460;27;20093;-59
2022/01/03 02:20:10;;;;;;;29.83;22.50;;;;;;;20.87;50.87;101357.25;4227764;27;20035;-59
2022/01/03 02:22:13;;;;;;;36.05;22.60;;;;;;;20.89;50.77;101363.34;4221038;28;20023;-59
2022/01/03 02:24:14;;;;;;;30.77;22.48;;;;;;;20.89;51.14;101374.47;4230176;28;20088;-59
2022/01/03 02:26:16;;;;;;;32.45;22.67;;;;;;;20.89;50.86;101388.38;4231926;27;20107;-60
2022/01/03 02:28:20;;;;;;;26.17;21.25;;;;;;;20.88;50.84;101382.00;4226675;28;20036;-61
2022/01/03 02:30:27;;;;;;;27.30;20.83;;;;;;;20.88;50.95;101382.00;4228230;28;20131;-59
2022/01/03 02:32:29;;;;;;;28.50;20.67;;;;;;;20.89;51.27;101393.94;4228741;28;20048;-60
2022/01/03 02:34:31;;;;;;;31.60;19.63;;;;;;;20.88;51.16;101381.16;4231392;28;20109;-59
2022/01/03 02:36:34;;;;;;;27.00;20.08;;;;;;;20.87;51.05;101387.84;4226594;28;20076;-59
2022/01/03 02:38:37;;;;;;;25.60;18.52;;;;;;;20.87;51.04;101391.44;4220328;28;20086;-59
2022/01/03 02:40:39;;;;;;;25.80;18.40;;;;;;;20.87;51.01;101385.88;4214624;28;20047;-60
2022/01/03 02:42:41;;;;;;;28.30;19.27;;;;;;;20.86;51.19;101388.94;4227956;28;20035;-60
2022/01/03 02:44:43;;;;;;;20.65;16.50;;;;;;;20.87;51.13;101412.88;4229561;28;20081;-60
2022/01/03 02:46:45;;;;;;;22.60;17.50;;;;;;;20.83;51.23;101425.63;4228744;28;20393;-59
2022/01/03 02:48:46;;;;;;;24.25;16.92;;;;;;;20.87;51.57;101424.84;4226666;27;20044;-61
2022/01/03 02:50:48;;;;;;;21.08;16.10;;;;;;;20.88;51.46;101425.66;4224931;28;20120;-62
2022/01/03 02:52:50;;;;;;;22.25;16.38;;;;;;;20.87;51.39;101433.19;4227735;28;20429;-61
2022/01/03 02:54:52;;;;;;;19.75;15.32;;;;;;;20.87;51.34;101446.25;4220590;27;20036;-59
2022/01/03 02:56:54;;;;;;;23.65;15.40;;;;;;;20.88;51.45;101459.06;4216246;27;20036;-60
2022/01/03 02:58:56;;;;;;;21.38;15.80;;;;;;;20.88;51.50;101470.19;4227584;28;20043;-60
2022/01/03 03:00:57;;;;;;;20.30;15.35;;;;;;;20.88;51.70;101486.88;4223096;28;20077;-59
2022/01/03 03:02:59;;;;;;;20.15;14.45;;;;;;;20.88;51.50;101503.56;4228826;28;20043;-59
2022/01/03 03:05:03;;;;;;;16.77;13.23;;;;;;;20.87;51.23;101504.66;4229989;27;20036;-60
2022/01/03 03:07:25;;;;;;;16.73;13.30;;;;;;;20.85;51.79;101510.50;4224974;27;20052;-58
2022/01/03 03:09:26;;;;;;;16.83;12.50;;;;;;;20.88;51.56;101493.25;4223139;28;20036;-59
2022/01/03 03:11:28;;;;;;;18.65;12.85;;;;;;;20.88;51.37;101504.41;4213053;28;20040;-60
2022/01/03 03:13:29;;;;;;;19.70;13.48;;;;;;;20.88;51.45;101517.47;4229945;28;20047;-60
2022/01/03 03:15:32;;;;;;;17.65;11.82;;;;;;;20.89;51.41;101522.78;4229496;28;20044;-59
2022/01/03 03:17:33;;;;;;;17.52;11.90;;;;;;;20.88;51.41;101520.25;4228674;28;20065;-60
2022/01/03 03:19:58;;;;;;;14.95;10.57;;;;;;;20.86;51.62;101525.25;4229650;28;20109;-60
2022/01/03 03:22:00;;;;;;;19.45;12.95;;;;;;;20.88;51.72;101542.50;4217993;28;20112;-59
2022/01/03 03:24:02;;;;;;;16.63;10.93;;;;;;;20.89;51.51;101538.59;4231040;28;20031;-56
2022/01/03 03:26:03;;;;;;;15.48;10.57;;;;;;;20.88;51.41;101503.56;4229791;28;20092;-58
2022/01/03 03:28:11;;;;;;;18.55;10.38;;;;;;;20.87;51.73;101510.22;4228652;28;20104;-60
2022/01/03 03:30:24;;;;;;;13.55;10.10;;;;;;;20.79;51.26;101504.03;4229511;28;20031;-59
2022/01/03 03:32:27;;;;;;;14.95;10.23;;;;;;;20.88;51.26;101514.69;4229554;28;20039;-59
2022/01/03 03:34:29;;;;;;;11.85;8.65;;;;;;;20.89;51.51;101527.47;4226618;28;20496;-60
2022/01/03 03:36:30;;;;;;;11.38;8.73;;;;;;;20.87;51.00;101507.44;4218310;28;20040;-60
2022/01/03 03:38:32;;;;;;;11.40;8.10;;;;;;;20.87;51.23;101505.50;4219389;28;20043;-59
2022/01/03 03:40:34;;;;;;;11.57;8.30;;;;;;;20.86;51.41;101505.78;4230458;28;20108;-59
2022/01/03 03:42:35;;;;;;;9.75;7.78;;;;;;;20.86;51.46;101512.19;4230171;28;20433;-59
2022/01/03 03:44:38;;;;;;;12.18;8.45;;;;;;;20.86;51.24;101501.06;4226910;28;20436;-59
2022/01/03 03:46:39;;;;;;;12.38;7.22;;;;;;;20.81;51.09;101504.63;4227811;28;20044;-59
2022/01/03 03:48:41;;;;;;;10.60;7.63;;;;;;;20.87;50.96;101518.56;4226425;28;20097;-60
2022/01/03 03:50:43;;;;;;;9.63;6.32;;;;;;;20.87;51.35;101513.00;4230380;28;20032;-58
2022/01/03 03:52:44;;;;;;;10.63;7.32;;;;;;;20.81;51.06;101515.75;4230341;28;20104;-58
2022/01/03 03:54:46;;;;;;;9.80;7.05;;;;;;;20.80;50.99;101516.00;4218481;28;20090;-60
2022/01/03 03:56:47;;;;;;;9.20;6.60;;;;;;;20.87;51.07;101540.84;4228270;28;20035;-60
2022/01/03 03:58:49;;;;;;;11.77;6.90;;;;;;;20.86;51.04;101528.03;4223876;28;20048;-59
2022/01/03 04:00:50;;;;;;;11.60;6.38;;;;;;;20.84;50.76;101535.78;4230393;28;20068;-59
2022/01/03 04:02:52;;;;;;;8.90;6.25;;;;;;;20.86;50.81;101544.72;4188144;28;20037;-60
2022/01/03 04:04:53;;;;;;;9.45;6.07;;;;;;;20.85;50.94;101554.16;4216823;28;20444;-60
2022/01/03 04:06:55;;;;;;;9.63;5.97;;;;;;;20.85;50.64;101545.81;4224411;28;20089;-59
2022/01/03 04:08:57;;;;;;;11.77;6.40;;;;;;;20.80;50.67;101550.25;4222569;28;20036;-59
2022/01/03 04:10:59;;;;;;;9.10;6.18;;;;;;;20.80;50.33;101550.25;4230746;28;20023;-59
2022/01/03 04:13:00;;;;;;;11.55;5.78;;;;;;;20.83;50.46;101557.22;4223621;28;20040;-60
2022/01/03 04:15:03;;;;;;;10.35;6.03;;;;;;;20.79;50.56;101550.50;4232228;27;20096;-56
2022/01/03 04:17:09;;;;;;;9.35;5.93;;;;;;;20.77;50.28;101570.25;4237949;27;20085;-59
2022/01/03 04:19:10;;;;;;;10.50;6.03;;;;;;;20.83;50.20;101578.63;4224692;28;20101;-60
2022/01/03 04:21:11;;;;;;;8.27;6.30;;;;;;;20.84;50.21;101592.25;4233502;27;20036;-59
2022/01/03 04:23:15;;;;;;;7.82;5.15;;;;;;;20.83;49.83;101578.63;4231370;28;20023;-60
2022/01/03 04:25:17;;;;;;;8.88;5.13;;;;;;;20.84;50.24;101583.06;4233411;28;20035;-59
2022/01/03 04:27:18;;;;;;;8.40;5.10;;;;;;;20.82;49.86;101588.91;4233539;27;20084;-59
2022/01/03 04:29:20;;;;;;;7.88;5.18;;;;;;;20.81;50.18;101604.78;4234704;27;20116;-59
2022/01/03 04:31:21;;;;;;;9.38;5.35;;;;;;;20.81;50.05;101590.88;4230272;28;20389;-58
2022/01/03 04:33:23;;;;;;;7.80;5.18;;;;;;;20.81;50.02;101582.53;4236065;27;20065;-58
2022/01/03 04:35:24;;;;;;;6.45;5.00;;;;;;;20.80;49.79;101586.41;4231765;28;20120;-59
2022/01/03 04:37:26;;;;;;;6.15;4.47;;;;;;;20.80;49.67;101589.19;4227991;28;20105;-60
2022/01/03 04:39:27;;;;;;;5.80;4.50;;;;;;;20.81;49.55;101590.88;4231206;28;20108;-58
2022/01/03 04:41:28;;;;;;;6.35;4.53;;;;;;;20.80;49.54;101614.22;4218053;28;20101;-57
2022/01/03 04:43:30;;;;;;;6.72;4.35;;;;;;;20.81;49.57;101620.63;4217719;28;20143;-59
2022/01/03 04:45:32;;;;;;;5.45;4.00;;;;;;;20.80;49.44;101616.13;4230527;28;20474;-59
2022/01/03 04:47:33;;;;;;;6.07;4.28;;;;;;;20.77;49.40;101611.13;4223480;28;20043;-58
2022/01/03 04:49:35;;;;;;;7.90;4.60;;;;;;;20.71;49.19;101604.69;4223456;28;20036;-58
2022/01/03 04:51:37;;;;;;;5.55;3.90;;;;;;;20.78;49.42;101627.53;4231257;27;20047;-58
2022/01/03 04:53:40;;;;;;;5.95;4.10;;;;;;;20.78;49.44;101616.41;4229938;28;20043;-59
2022/01/03 04:55:41;;;;;;;8.52;3.90;;;;;;;20.75;49.35;101628.06;4220899;28;20032;-58
2022/01/03 04:57:43;;;;;;;5.68;3.70;;;;;;;20.77;49.14;101625.88;4232665;28;20328;-59
2022/01/03 04:59:45;;;;;;;6.88;3.90;;;;;;;20.76;49.49;101624.19;4229658;28;20027;-59
2022/01/03 05:01:47;;;;;;;5.72;3.50;;;;;;;20.76;49.18;101618.63;4233079;28;20024;-60
2022/01/03 05:03:48;;;;;;;5.57;3.38;;;;;;;20.73;49.13;101619.16;4231406;28;20101;-59
2022/01/03 05:05:50;;;;;;;6.10;3.58;;;;;;;20.73;49.02;101644.19;4231218;28;20432;-59
2022/01/03 05:07:54;;;;;;;4.07;3.15;;;;;;;20.76;48.95;101648.41;4229353;28;20088;-60
2022/01/03 05:09:55;;;;;;;4.50;3.33;;;;;;;20.76;48.99;101624.19;4229511;28;20085;-59
2022/01/03 05:11:57;;;;;;;8.32;3.70;;;;;;;20.75;48.66;101641.97;4230659;27;20035;-57
2022/01/03 05:13:58;;;;;;;7.93;3.03;;;;;;;20.72;48.90;101659.19;4225324;28;20027;-59
2022/01/03 05:16:04;;;;;;;6.72;3.20;;;;;;;20.75;48.73;101678.13;4231888;28;20039;-59
2022/01/03 05:18:05;;;;;;;5.10;3.17;;;;;;;20.75;48.52;101678.13;4228307;28;20059;-57
2022/01/03 05:20:07;;;;;;;3.95;2.38;;;;;;;20.74;48.78;101673.66;4231916;28;20043;-57
2022/01/03 05:22:08;;;;;;;4.38;3.00;;;;;;;20.75;48.70;101686.47;4232335;28;20070;-59
2022/01/03 05:24:13;;;;;;;4.90;2.78;;;;;;;20.73;48.54;101691.47;4231309;28;20482;-58
2022/01/03 05:26:16;;;;;;;3.63;2.47;;;;;;;20.74;48.36;101692.31;4232349;28;20441;-59
2022/01/03 05:28:18;;;;;;;3.70;2.50;;;;;;;20.73;48.67;101708.16;4224502;28;20483;-59
2022/01/03 05:30:20;;;;;;;4.63;2.92;;;;;;;20.73;48.68;101724.00;4227781;28;20039;-58
2022/01/03 05:32:21;;;;;;;4.15;2.05;;;;;;;20.74;48.37;101734.03;4230238;28;20031;-58
2022/01/03 05:34:23;;;;;;;3.45;2.58;;;;;;;20.73;48.51;101730.41;4222541;28;20039;-58
2022/01/03 05:36:24;;;;;;;7.07;2.45;;;;;;;20.71;48.14;101721.50;4231351;28;20101;-57
2022/01/03 05:38:26;;;;;;;3.50;2.53;;;;;;;20.73;48.30;101735.97;4212950;28;20145;-58
2022/01/03 05:40:28;;;;;;;4.60;2.63;;;;;;;20.76;48.03;101745.75;4225726;28;20036;-59
2022/01/03 05:42:29;;;;;;;5.97;2.85;;;;;;;20.79;48.47;101740.47;4218603;28;20051;-58
2022/01/03 05:44:33;;;;;;;2.85;2.08;;;;;;;20.80;48.26;101731.06;4231250;28;20040;-57
2022/01/03 05:46:35;;;;;;;3.50;2.60;;;;;;;20.90;48.03;101718.34;4230753;28;20585;-59
2022/01/03 05:48:36;;;;;;;4.10;2.33;;;;;;;20.93;48.07;101723.38;4207643;28;20449;-59
2022/01/03 05:50:38;;;;;;;4.35;2.75;;;;;;;20.97;47.83;101738.44;4216281;28;20085;-57
2022/01/03 05:52:45;;;;;;;3.58;2.13;;;;;;;20.99;47.93;101739.03;4214962;28;20104;-57
2022/01/03 05:54:46;;;;;;;2.65;1.92;;;;;;;21.01;47.54;101736.81;4221085;28;20023;-59
2022/01/03 05:56:48;;;;;;;3.83;2.10;;;;;;;21.04;47.55;101739.09;4218648;28;20040;-58
2022/01/03 05:58:50;;;;;;;3.10;2.53;;;;;;;21.08;47.57;101764.47;4229505;28;20448;-55
2022/01/03 06:00:51;;;;;;;3.70;1.83;;;;;;;21.07;47.90;101774.72;4224658;28;20106;-57
2022/01/03 06:02:56;;;;;;;4.28;2.33;;;;;;;21.07;47.81;101763.59;4225308;28;20096;-58
2022/01/03 06:05:01;;;;;;;4.38;2.25;;;;;;;21.07;47.91;101760.81;4231115;28;20127;-58
2022/01/03 06:07:07;;;;;;;2.97;1.63;;;;;;;21.08;48.22;101758.91;4232057;28;20073;-56
2022/01/03 06:09:11;;;;;;;4.75;1.98;;;;;;;21.09;47.83;101755.84;4215955;28;20425;-56
2022/01/03 06:11:13;;;;;;;4.93;1.92;;;;;;;21.09;47.89;101747.50;4215456;27;20036;-57
2022/01/03 06:13:15;;;;;;;5.97;1.75;;;;;;;21.13;48.36;101731.94;4219646;28;20495;-59
2022/01/03 06:15:16;;;;;;;7.88;2.38;;;;;;;21.18;48.60;101753.44;4214503;28;20040;-59
2022/01/03 06:17:19;;;;;;;6.05;1.77;;;;;;;21.20;48.13;101759.56;4225512;28;20109;-59
2022/01/03 06:19:21;;;;;;;6.78;1.90;;;;;;;21.14;47.85;101747.53;4213903;28;20121;-57
2022/01/03 06:21:25;;;;;;;4.50;1.38;;;;;;;21.21;47.53;101761.22;4231061;28;20566;-58
2022/01/03 06:23:27;;;;;;;5.68;1.60;;;;;;;21.23;46.82;101756.25;4218233;28;20093;-58
2022/01/03 06:25:28;;;;;;;8.02;2.20;;;;;;;21.24;46.38;101742.06;4229358;28;20549;-59
2022/01/03 06:27:29;;;;;;;6.60;1.33;;;;;;;21.25;46.45;101737.34;4231720;28;20039;-59
2022/01/03 06:29:31;;;;;;;6.57;1.25;;;;;;;21.25;45.91;101728.97;4228140;28;20100;-58
2022/01/03 06:31:33;;;;;;;2.08;1.25;;;;;;;21.24;45.90;101736.50;4229036;28;20043;-59
2022/01/03 06:33:34;;;;;;;4.43;1.20;;;;;;;21.26;45.60;101744.59;4230501;28;20043;-59
2022/01/03 06:35:36;;;;;;;7.00;1.55;;;;;;;21.27;45.12;101747.13;4230134;28;20044;-58
2022/01/03 06:37:37;;;;;;;5.47;1.17;;;;;;;21.29;45.01;101756.03;4231281;28;20019;-61
2022/01/03 06:39:39;;;;;;;3.33;1.60;;;;;;;21.27;45.19;101751.84;4231517;28;20100;-59
2022/01/03 06:41:40;;;;;;;17.23;8.70;;;;;;;21.30;44.95;101757.72;4231164;28;20460;-60
2022/01/03 06:43:42;;;;;;;32.08;17.65;;;;;;;21.31;44.37;101765.00;4229918;28;20116;-59
2022/01/03 06:45:43;;;;;;;35.08;20.92;;;;;;;21.34;44.06;101776.69;4230770;28;20044;-58
2022/01/03 06:47:53;;;;;;;48.15;23.73;;;;;;;21.34;44.01;101785.91;4230010;28;20093;-59
2022/01/03 06:49:54;;;;;;;45.65;23.55;;;;;;;21.34;44.00;101776.69;4212605;28;20047;-60
2022/01/03 06:51:55;;;;;;;46.65;23.95;;;;;;;21.35;43.68;101786.72;4228650;28;20479;-58
2022/01/03 06:53:57;;;;;;;46.20;25.50;;;;;;;21.37;43.53;101782.59;4227420;28;20048;-58
2022/01/03 06:55:59;;;;;;;55.45;26.38;;;;;;;21.36;43.39;101780.09;4231429;28;20417;-58
2022/01/03 06:58:00;;;;;;;49.83;26.25;;;;;;;21.38;43.12;101770.34;4230481;28;20047;-60
2022/01/03 07:00:02;;;;;;;51.05;26.10;;;;;;;21.39;43.02;101760.88;4229800;28;20116;-58
2022/01/03 07:02:05;;;;;;;50.85;26.48;;;;;;;21.43;43.18;101763.97;4223279;28;20181;-59
2022/01/03 07:04:06;;;;;;;49.33;25.50;;;;;;;21.41;43.31;101752.28;4230519;28;20068;-60
2022/01/03 07:06:07;;;;;;;47.70;25.95;;;;;;;21.46;43.24;101763.47;4228500;28;20039;-59
2022/01/03 07:08:09;;;;;;;53.97;28.08;;;;;;;21.44;43.08;101757.31;4222153;28;20555;-59
2022/01/03 07:10:11;;;;;;;49.60;26.40;;;;;;;21.43;43.16;101752.84;4213620;28;20180;-59
2022/01/03 07:12:13;;;;;;;50.33;26.13;;;;;;;21.47;42.97;101756.78;4224462;28;20449;-59
2022/01/03 07:18:56;;;;;;;47.33;25.50;;;;;;;21.48;43.30;101758.47;4214796;28;20081;-60
2022/01/03 07:20:58;;;;;;;48.72;24.95;;;;;;;21.49;43.54;101765.72;4214173;28;20040;-60
2022/01/03 07:23:00;;;;;;;50.38;25.45;;;;;;;21.48;43.00;101755.66;4214080;28;20458;-58
2022/01/03 07:25:04;;;;;;;48.42;25.88;;;;;;;21.47;43.21;101749.25;4220395;28;20043;-61
2022/01/03 07:27:08;;;;;;;49.22;24.80;;;;;;;21.50;43.71;101750.69;4231352;28;20057;-58
2022/01/03 07:29:09;;;;;;;47.40;24.70;;;;;;;21.49;43.50;101737.88;4229860;28;20039;-59
2022/01/03 07:31:11;;;;;;;49.47;25.05;;;;;;;21.49;43.38;101737.88;4228229;28;20096;-59
2022/01/03 07:33:12;;;;;;;47.30;24.65;;;;;;;21.49;43.44;101721.19;4229728;28;20417;-60
2022/01/03 07:35:16;;;;;;;45.80;24.15;;;;;;;21.50;43.58;101717.28;4229465;28;20437;-59
2022/01/03 07:37:18;;;;;;;46.05;23.80;;;;;;;21.49;43.30;101715.59;4229502;28;20043;-60
2022/01/03 07:39:22;;;;;;;43.90;23.50;;;;;;;21.46;43.38;101722.53;4227564;28;20483;-59
2022/01/03 07:41:23;;;;;;;40.33;21.97;;;;;;;21.51;43.41;101718.94;4230714;28;20445;-59
2022/01/03 07:43:25;;;;;;;46.55;24.25;;;;;;;21.46;43.62;101705.81;4229718;28;20039;-59
2022/01/03 07:45:27;;;;;;;47.30;23.98;;;;;;;21.49;43.19;101699.72;4229438;28;20107;-59
2022/01/03 07:47:28;;;;;;;44.22;23.55;;;;;;;21.50;43.68;101700.56;4221236;28;20048;-60
2022/01/03 07:49:30;;;;;;;39.72;23.15;;;;;;;21.49;43.58;101705.31;4224737;28;20039;-59
2022/01/03 07:51:34;;;;;;;44.97;22.67;;;;;;;21.49;43.51;101693.31;4230988;28;20096;-59
2022/01/03 07:53:35;;;;;;;45.40;22.65;;;;;;;21.43;43.55;101672.09;4218575;28;20089;-59
2022/01/03 07:55:37;;;;;;;45.58;22.95;;;;;;;21.50;43.78;101672.72;4214160;28;20028;-60
2022/01/03 07:57:39;;;;;;;40.40;21.25;;;;;;;21.49;43.48;101671.88;4217337;28;20379;-59
2022/01/03 07:59:41;;;;;;;40.60;21.23;;;;;;;21.50;43.58;101672.72;4229156;28;20047;-60
2022/01/03 08:01:43;;;;;;;42.10;21.15;;;;;;;21.50;43.79;101672.72;4230256;28;20044;-59
2022/01/03 08:03:44;;;;;;;40.30;21.50;;;;;;;21.50;43.75;101667.16;4226382;28;20344;-59
2022/01/03 08:05:46;;;;;;;45.47;22.65;;;;;;;21.51;43.70;101657.69;4213598;28;20040;-61
2022/01/03 08:07:50;;;;;;;40.33;21.27;;;;;;;21.50;43.73;101668.00;4214127;28;20108;-60
2022/01/03 08:09:51;;;;;;;39.53;20.85;;;;;;;21.49;43.83;101671.06;4229877;28;20101;-60
2022/01/03 08:11:53;;;;;;;36.70;20.73;;;;;;;21.51;44.00;101674.41;4229746;28;20448;-60
2022/01/03 08:13:54;;;;;;;38.05;19.98;;;;;;;21.50;44.09;101667.16;4227449;28;20116;-59
2022/01/03 08:15:55;;;;;;;37.28;18.90;;;;;;;21.50;44.19;101661.59;4230370;28;20047;-60
2022/01/03 08:17:57;;;;;;;37.22;19.50;;;;;;;21.48;44.37;101659.03;4229678;28;20044;-60
2022/01/03 08:19:58;;;;;;;35.45;18.83;;;;;;;21.49;44.05;101679.41;4229196;28;20052;-59
2022/01/03 08:22:00;;;;;;;34.13;18.48;;;;;;;21.49;44.53;101704.47;4229277;28;20097;-60
2022/01/03 08:24:01;;;;;;;35.15;19.20;;;;;;;21.43;44.07;101698.00;4226714;28;20458;-60
2022/01/03 08:26:03;;;;;;;37.60;20.42;;;;;;;21.48;44.42;101720.31;4229800;28;20043;-60
2022/01/03 08:28:09;;;;;;;33.08;17.38;;;;;;;21.47;44.27;101729.78;4229102;28;20506;-59
2022/01/03 08:30:10;;;;;;;39.70;18.73;;;;;;;21.47;44.39;101734.50;4228740;28;20048;-61
2022/01/03 08:32:12;;;;;;;33.95;17.52;;;;;;;21.47;44.62;101729.78;4229680;28;20101;-60
2022/01/03 08:34:13;;;;;;;35.47;17.88;;;;;;;21.46;44.74;101722.53;4217648;28;20040;-60
2022/01/03 08:36:15;;;;;;;32.40;18.40;;;;;;;21.47;44.65;101731.72;4213023;28;20486;-59
2022/01/03 08:38:16;;;;;;;31.92;16.33;;;;;;;21.46;44.58;101743.97;4216622;28;20036;-60
2022/01/03 08:40:18;;;;;;;36.05;17.95;;;;;;;21.46;44.50;101749.53;4229519;28;20047;-60
2022/01/03 08:42:20;;;;;;;33.78;17.15;;;;;;;21.43;44.65;101748.13;4216304;28;20040;-60
2022/01/03 08:44:22;;;;;;;28.85;16.02;;;;;;;21.44;44.63;101754.53;4217836;28;20552;-59
2022/01/03 08:46:24;;;;;;;31.35;16.85;;;;;;;21.45;45.01;101733.94;4216972;28;20036;-58
2022/01/03 08:48:28;;;;;;;31.67;16.70;;;;;;;21.42;44.65;101723.34;4212947;28;20040;-60
2022/01/03 08:50:33;;;;;;;27.23;14.82;;;;;;;21.45;44.87;101731.16;4216433;28;20096;-59
2022/01/03 08:52:34;;;;;;;28.90;15.57;;;;;;;21.44;44.66;101729.47;4213218;28;20036;-60
2022/01/03 08:54:35;;;;;;;29.55;15.25;;;;;;;21.44;44.72;101726.66;4229104;28;20048;-59
2022/01/03 08:56:43;;;;;;;28.92;14.65;;;;;;;21.39;45.02;101723.84;4231434;28;20119;-59
2022/01/03 08:58:44;;;;;;;28.77;14.93;;;;;;;21.38;44.83;101724.97;4231440;28;20470;-61
2022/01/03 09:00:49;;;;;;;28.58;15.20;;;;;;;21.42;44.96;101731.69;4231630;28;20039;-59
2022/01/03 09:02:50;;;;;;;28.35;15.27;;;;;;;21.40;44.72;101736.69;4217610;28;20047;-59
2022/01/03 09:04:52;;;;;;;29.60;15.25;;;;;;;21.40;45.01;101756.19;4232841;28;20043;-60
2022/01/03 09:06:53;;;;;;;28.60;14.52;;;;;;;21.39;45.18;101755.31;4228053;28;20035;-59
2022/01/03 09:08:55;;;;;;;26.58;14.30;;;;;;;21.38;45.07;101752.81;4231494;28;20417;-60
2022/01/03 09:10:56;;;;;;;25.23;13.60;;;;;;;21.38;45.19;101750.03;4231583;28;20039;-59
2022/01/03 09:12:58;;;;;;;27.38;13.35;;;;;;;21.38;45.26;101747.22;4231425;28;20039;-60
2022/01/03 09:14:59;;;;;;;26.40;13.85;;;;;;;21.36;45.08;101744.72;4232347;28;20052;-60
2022/01/03 09:17:01;;;;;;;25.05;13.07;;;;;;;21.34;45.27;101744.13;4231698;28;20051;-55
2022/01/03 09:19:03;;;;;;;24.48;12.98;;;;;;;21.33;45.07;101749.97;4232668;28;20077;-59
2022/01/03 09:21:05;;;;;;;25.77;13.30;;;;;;;21.34;44.85;101752.50;4231028;28;20047;-60
2022/01/03 09:23:12;;;;;;;23.83;12.82;;;;;;;21.33;44.99;101763.91;4215657;28;20052;-58
2022/01/03 09:29:40;;;;;;;25.98;12.20;;;;;;;21.33;45.03;101783.38;4225133;28;20120;-61
2022/01/03 09:31:42;;;;;;;24.10;12.45;;;;;;;21.31;45.22;101783.66;4215214;28;20431;-59
2022/01/03 09:33:43;;;;;;;26.17;12.20;;;;;;;21.31;45.33;101795.63;4227556;28;20111;-60
2022/01/03 09:35:45;;;;;;;24.55;12.00;;;;;;;21.30;45.15;101801.41;4221133;28;20109;-59